Time;durP1;ratioP1;P1;durP2;ratioP2;P2;SDS_P1;SDS_P2;PMS_P1;PMS_P2;Temp;Humidity;BMP_temperature;BMP_pressure;BME280_temperature;BME280_humidity;BME280_pressure;Samples;Min_cycle;Max_cycle;Signal;HPM_P1;HPM_P2
2022/06/19 00:02:06;;;;;;;4.68;3.92;;;;;;;24.72;48.34;95399.78;4981513;28;20053;-54
2022/06/19 00:04:32;;;;;;;5.63;3.80;;;;;;;24.72;48.23;95393.59;4982809;28;20026;-51
2022/06/19 00:06:58;;;;;;;6.57;3.90;;;;;;;24.70;48.38;95388.63;4998498;28;20030;-51
2022/06/19 00:09:24;;;;;;;5.00;3.65;;;;;;;24.70;48.09;95396.09;4997551;28;20556;-52
2022/06/19 00:11:49;;;;;;;6.03;3.50;;;;;;;24.71;48.15;95397.56;4999854;28;20084;-52
2022/06/19 00:14:15;;;;;;;5.78;3.58;;;;;;;24.72;48.31;95399.03;5001954;28;20521;-54
2022/06/19 00:16:40;;;;;;;5.55;3.40;;;;;;;24.68;48.36;95393.09;5002977;28;20499;-53
2022/06/19 00:19:06;;;;;;;3.92;3.30;;;;;;;24.74;47.84;95402.00;5000833;28;20026;-52
2022/06/19 00:21:32;;;;;;;5.35;3.70;;;;;;;24.72;48.18;95396.31;5001346;28;20022;-54
2022/06/19 00:23:57;;;;;;;4.90;3.53;;;;;;;24.70;48.12;95391.34;5001735;28;20512;-52
2022/06/19 00:26:22;;;;;;;4.45;3.53;;;;;;;24.66;48.35;95399.06;5004847;28;20026;-54
2022/06/19 00:28:48;;;;;;;6.30;3.53;;;;;;;24.62;48.42;95403.34;5014658;28;20022;-52
2022/06/19 00:31:14;;;;;;;5.43;3.63;;;;;;;24.62;48.28;95400.59;5006488;28;20084;-52
2022/06/19 00:33:40;;;;;;;4.63;3.65;;;;;;;24.62;48.52;95395.91;5005267;28;20524;-52
2022/06/19 00:36:05;;;;;;;3.92;3.50;;;;;;;24.65;48.29;95394.13;5003341;28;20022;-52
2022/06/19 00:38:32;;;;;;;4.50;3.30;;;;;;;24.62;48.31;95400.59;5001087;28;20037;-54
2022/06/19 00:40:58;;;;;;;5.68;3.47;;;;;;;24.60;48.38;95397.66;5003366;28;20109;-53
2022/06/19 00:43:23;;;;;;;3.88;3.30;;;;;;;24.63;48.29;95396.63;5005292;28;20046;-54
2022/06/19 00:45:52;;;;;;;5.90;3.47;;;;;;;24.58;48.08;95400.88;5005367;28;20606;-52
2022/06/19 00:48:32;;;;;;;4.45;3.67;;;;;;;24.59;47.96;95396.19;4985882;28;20092;-55
2022/06/19 00:51:00;;;;;;;6.13;2.92;;;;;;;24.58;47.87;95394.69;4973152;28;20045;-53
2022/06/19 00:53:42;;;;;;;5.55;3.67;;;;;;;24.57;48.11;95393.19;5007081;28;20037;-55
2022/06/19 00:56:08;;;;;;;5.03;3.50;;;;;;;24.59;47.82;95396.91;4989273;28;20061;-53
2022/06/19 00:58:36;;;;;;;4.75;3.60;;;;;;;24.53;48.20;95398.94;4968822;28;20500;-53
2022/06/19 01:01:05;;;;;;;6.25;3.40;;;;;;;24.53;48.11;95392.75;5003197;28;20093;-55
2022/06/19 01:03:48;;;;;;;4.22;3.47;;;;;;;24.51;48.10;95395.22;4970266;28;20025;-51
2022/06/19 01:06:14;;;;;;;4.85;3.85;;;;;;;24.53;48.11;95398.22;4988820;28;20030;-53
2022/06/19 01:08:39;;;;;;;5.30;3.50;;;;;;;24.55;47.79;95395.72;5001561;28;20034;-52
2022/06/19 01:11:05;;;;;;;3.65;3.17;;;;;;;24.54;48.00;95394.22;5002112;28;20033;-53
2022/06/19 01:13:31;;;;;;;6.25;3.53;;;;;;;24.55;48.38;95384.78;4987306;28;20026;-52
2022/06/19 01:15:56;;;;;;;5.20;3.55;;;;;;;24.52;48.07;95385.78;5001895;28;20698;-53
2022/06/19 01:18:22;;;;;;;5.28;3.47;;;;;;;24.55;47.92;95395.72;5003935;28;20489;-53
2022/06/19 01:20:47;;;;;;;5.20;3.60;;;;;;;24.55;48.04;95390.97;5009548;28;20034;-52
2022/06/19 01:23:21;;;;;;;4.30;3.08;;;;;;;24.56;47.97;95391.75;4968862;28;20476;-52
2022/06/19 01:25:47;;;;;;;4.00;3.30;;;;;;;24.57;47.85;95393.19;4985953;28;20030;-51
2022/06/19 01:31:03;;;;;;;4.40;3.53;;;;;;;24.57;47.98;95393.19;4971504;28;20036;-52
2022/06/19 01:33:34;;;;;;;3.90;3.50;;;;;;;24.56;47.68;95386.28;4970857;28;20062;-52
2022/06/19 01:36:00;;;;;;;4.43;3.40;;;;;;;24.51;48.26;95384.31;4970084;28;20049;-52
2022/06/19 01:38:25;;;;;;;4.38;3.05;;;;;;;24.48;48.44;95390.78;4986117;28;20030;-53
2022/06/19 01:40:58;;;;;;;3.80;3.00;;;;;;;24.51;47.67;95390.53;4984074;28;20033;-52
2022/06/19 01:43:24;;;;;;;4.80;3.55;;;;;;;24.45;48.30;95375.41;4983387;28;20127;-52
2022/06/19 01:45:54;;;;;;;4.13;3.60;;;;;;;24.43;47.95;95388.84;4985404;28;20677;-52
2022/06/19 01:48:21;;;;;;;6.47;3.20;;;;;;;24.45;47.68;95392.56;5010740;28;20030;-52
2022/06/19 01:50:46;;;;;;;4.45;3.10;;;;;;;24.49;47.67;95397.72;4983083;28;20038;-52
2022/06/19 01:53:17;;;;;;;7.28;3.28;;;;;;;24.48;47.55;95390.78;5000570;28;20030;-52
2022/06/19 01:55:43;;;;;;;5.88;3.30;;;;;;;24.46;47.87;95394.03;4985677;28;20393;-53
2022/06/19 01:58:08;;;;;;;4.88;3.50;;;;;;;24.49;47.41;95398.47;4987186;28;20033;-52
2022/06/19 02:00:34;;;;;;;5.45;3.38;;;;;;;24.46;47.90;95393.28;4983422;28;20724;-52
2022/06/19 02:03:26;;;;;;;4.78;3.30;;;;;;;24.45;47.50;95391.78;4983606;28;20021;-53
2022/06/19 02:05:51;;;;;;;3.70;3.30;;;;;;;24.44;47.70;95390.34;4986287;28;20034;-53
2022/06/19 02:08:17;;;;;;;6.18;3.67;;;;;;;24.45;47.77;95392.56;4999550;28;20484;-54
2022/06/19 02:10:44;;;;;;;7.50;3.45;;;;;;;24.47;47.87;95394.78;4985214;28;20547;-52
2022/06/19 02:13:10;;;;;;;8.23;3.45;;;;;;;24.43;47.39;95399.75;5003678;28;20033;-54
2022/06/19 02:15:35;;;;;;;5.50;3.35;;;;;;;24.44;47.49;95406.72;4985560;28;20026;-53
2022/06/19 02:18:01;;;;;;;4.78;3.45;;;;;;;24.39;47.75;95400.03;5002677;28;20033;-53
2022/06/19 02:20:26;;;;;;;4.72;3.65;;;;;;;24.37;47.44;95396.31;4998420;28;20057;-52
2022/06/19 02:22:51;;;;;;;5.25;3.40;;;;;;;24.38;47.33;95397.81;5003627;28;20030;-54
2022/06/19 02:25:17;;;;;;;4.65;3.15;;;;;;;24.39;47.29;95407.47;5000508;28;20037;-55
2022/06/19 02:27:43;;;;;;;6.32;3.38;;;;;;;24.34;47.44;95410.25;4999057;28;20032;-53
2022/06/19 02:30:10;;;;;;;4.43;3.10;;;;;;;24.35;47.38;95410.47;4985706;28;20030;-53
2022/06/19 02:32:38;;;;;;;5.90;3.17;;;;;;;24.36;47.65;95405.75;5004376;28;20825;-53
2022/06/19 02:35:04;;;;;;;6.55;3.28;;;;;;;24.30;47.93;95407.00;4984936;28;20184;-51
2022/06/19 02:37:31;;;;;;;6.75;2.90;;;;;;;24.32;47.74;95405.28;5001519;28;20501;-53
2022/06/19 02:39:59;;;;;;;7.40;3.47;;;;;;;24.35;47.56;95410.47;5001474;28;20432;-52
2022/06/19 02:42:30;;;;;;;4.68;3.50;;;;;;;24.36;47.54;95405.75;4984892;28;20042;-54
2022/06/19 02:44:57;;;;;;;4.32;3.67;;;;;;;24.38;47.55;95414.19;5001766;28;20036;-52
2022/06/19 02:47:24;;;;;;;4.18;3.50;;;;;;;24.35;47.26;95410.47;5003290;28;20547;-52
2022/06/19 02:49:50;;;;;;;4.78;3.17;;;;;;;24.31;47.74;95408.50;5000663;28;20049;-52
2022/06/19 02:52:15;;;;;;;5.15;3.03;;;;;;;24.26;47.94;95410.03;5000647;28;20556;-54
2022/06/19 02:54:41;;;;;;;4.53;3.35;;;;;;;24.30;47.38;95418.66;5000045;28;20033;-52
2022/06/19 02:57:06;;;;;;;5.63;3.33;;;;;;;24.25;47.60;95416.72;5002681;28;20473;-53
2022/06/19 02:59:32;;;;;;;4.85;3.55;;;;;;;24.29;47.62;95421.91;4981257;28;20113;-53
2022/06/19 03:01:57;;;;;;;4.28;3.10;;;;;;;24.25;47.74;95410.53;4983097;28;20022;-53
2022/06/19 03:04:29;;;;;;;5.75;3.67;;;;;;;24.28;47.12;95426.63;5004877;28;20057;-51
2022/06/19 03:06:55;;;;;;;5.22;3.70;;;;;;;24.26;47.14;95423.66;4980909;28;20509;-52
2022/06/19 03:09:21;;;;;;;5.53;3.47;;;;;;;24.31;47.58;95425.63;5001499;28;20048;-52
2022/06/19 03:11:46;;;;;;;4.53;3.17;;;;;;;24.26;47.16;95412.75;4998578;28;20045;-52
2022/06/19 03:14:12;;;;;;;4.32;3.40;;;;;;;24.27;47.54;95430.59;4983931;28;20535;-52
2022/06/19 03:16:37;;;;;;;5.13;3.67;;;;;;;24.31;47.80;95436.53;5002776;28;20045;-53
2022/06/19 03:19:03;;;;;;;4.35;3.40;;;;;;;24.32;47.72;95437.25;4984912;28;20084;-54
2022/06/19 03:21:28;;;;;;;5.20;3.80;;;;;;;24.26;47.69;95440.03;5005659;28;20025;-52
2022/06/19 03:23:54;;;;;;;4.25;3.30;;;;;;;24.23;47.23;95430.13;4999757;28;20084;-54
2022/06/19 03:26:19;;;;;;;4.35;3.10;;;;;;;24.18;47.83;95432.88;4998159;28;20045;-52
2022/06/19 03:28:45;;;;;;;4.78;3.72;;;;;;;24.23;47.67;95435.59;5000453;28;20026;-52
2022/06/19 03:31:16;;;;;;;5.88;3.40;;;;;;;24.18;47.65;95439.06;5001695;28;20014;-53
2022/06/19 03:33:41;;;;;;;3.65;3.17;;;;;;;24.21;47.37;95427.16;4982937;28;20045;-52
2022/06/19 03:36:07;;;;;;;4.35;3.20;;;;;;;24.22;47.53;95423.19;5001343;28;20420;-52
2022/06/19 03:38:32;;;;;;;4.30;3.42;;;;;;;24.23;47.46;95421.94;5001744;28;20374;-53
2022/06/19 03:40:58;;;;;;;3.90;2.78;;;;;;;24.26;47.73;95418.22;5007289;28;20033;-53
2022/06/19 03:43:23;;;;;;;4.28;3.45;;;;;;;24.25;47.70;95418.72;4998940;28;20049;-52
2022/06/19 03:45:48;;;;;;;4.55;3.28;;;;;;;24.24;47.42;95423.41;4998603;28;20722;-53
2022/06/19 03:48:14;;;;;;;4.40;3.17;;;;;;;24.25;47.70;95421.44;4999931;28;20033;-52
2022/06/19 03:50:41;;;;;;;3.53;3.20;;;;;;;24.24;47.78;95417.94;4999023;28;20575;-52
2022/06/19 03:53:07;;;;;;;4.07;3.00;;;;;;;24.27;47.57;95414.22;5000553;28;20507;-53
2022/06/19 03:55:33;;;;;;;5.75;3.58;;;;;;;24.24;47.56;95409.75;5001641;28;20018;-54
2022/06/19 03:57:58;;;;;;;4.47;3.20;;;;;;;24.23;47.69;95419.22;5000860;28;20037;-52
2022/06/19 04:00:24;;;;;;;5.20;3.42;;;;;;;24.24;47.64;95426.13;5001140;28;20025;-52
2022/06/19 04:02:49;;;;;;;4.22;3.30;;;;;;;24.24;47.96;95420.69;4999727;28;20497;-53
2022/06/19 04:05:15;;;;;;;4.43;3.30;;;;;;;24.25;48.13;95416.72;4998753;28;20492;-52
2022/06/19 04:07:47;;;;;;;4.50;3.38;;;;;;;24.25;47.65;95427.63;4999283;28;20151;-52
2022/06/19 04:10:14;;;;;;;4.45;3.30;;;;;;;24.25;48.09;95430.38;5000629;28;20053;-52
2022/06/19 04:12:39;;;;;;;5.45;3.40;;;;;;;24.25;48.04;95437.81;4980412;28;20022;-53
2022/06/19 04:15:05;;;;;;;6.88;3.83;;;;;;;24.24;48.49;95431.59;5000192;28;20654;-52
2022/06/19 04:17:30;;;;;;;5.55;3.28;;;;;;;24.27;48.38;95430.59;4998736;28;20014;-54
2022/06/19 04:19:56;;;;;;;3.97;3.58;;;;;;;24.27;48.17;95432.59;5000903;28;20022;-52
2022/06/19 04:22:21;;;;;;;4.82;3.65;;;;;;;24.28;47.87;95426.63;4999049;28;20386;-54
2022/06/19 04:24:47;;;;;;;5.10;3.42;;;;;;;24.25;48.28;95422.19;5000779;28;20022;-52
2022/06/19 04:27:12;;;;;;;3.88;3.38;;;;;;;24.27;47.91;95418.94;5001521;28;20084;-53
2022/06/19 04:29:38;;;;;;;4.05;3.38;;;;;;;24.29;48.41;95422.66;5002974;28;20033;-53
2022/06/19 04:32:04;;;;;;;4.72;3.30;;;;;;;24.32;48.32;95440.00;5001527;28;20029;-51
2022/06/19 04:34:29;;;;;;;5.20;3.53;;;;;;;24.32;47.92;95435.28;5001942;28;20124;-52
2022/06/19 04:36:55;;;;;;;5.07;3.65;;;;;;;24.36;47.83;95439.28;4977987;28;20030;-52
2022/06/19 04:39:20;;;;;;;4.40;3.80;;;;;;;24.35;48.25;95440.50;5000315;28;20018;-52
2022/06/19 04:41:46;;;;;;;8.07;3.95;;;;;;;24.35;48.32;95431.59;5014127;28;20037;-52
2022/06/19 04:44:13;;;;;;;6.15;3.67;;;;;;;24.36;47.79;95433.06;5000851;28;20056;-52
2022/06/19 04:46:39;;;;;;;4.45;3.80;;;;;;;24.38;47.73;95436.03;4997078;28;20173;-51
2022/06/19 04:49:04;;;;;;;4.43;3.65;;;;;;;24.40;48.24;95439.00;4979850;28;20030;-53
2022/06/19 04:51:30;;;;;;;5.90;3.95;;;;;;;24.38;47.83;95441.50;5001695;28;20038;-51
2022/06/19 04:53:55;;;;;;;5.18;3.38;;;;;;;24.40;47.87;95433.53;5000302;28;20099;-52
2022/06/19 04:56:21;;;;;;;4.40;3.97;;;;;;;24.39;47.87;95442.97;4998937;28;20028;-53
2022/06/19 04:58:47;;;;;;;4.50;3.70;;;;;;;24.43;47.93;95437.97;4979892;28;20563;-52
2022/06/19 05:01:23;;;;;;;5.32;3.83;;;;;;;24.48;48.00;95445.38;4998994;28;20300;-51
2022/06/19 05:03:50;;;;;;;5.32;3.75;;;;;;;24.43;48.15;95443.44;4980146;28;20029;-52
2022/06/19 05:06:16;;;;;;;5.03;3.90;;;;;;;24.46;47.91;95442.44;4980587;28;20512;-51
2022/06/19 05:08:41;;;;;;;4.32;3.78;;;;;;;24.49;47.77;95442.16;5000930;28;20104;-53
2022/06/19 05:11:09;;;;;;;5.22;3.72;;;;;;;24.48;47.92;95450.84;5004040;28;20094;-52
2022/06/19 05:13:34;;;;;;;4.60;3.72;;;;;;;24.52;48.08;95448.59;5003938;28;20855;-51
2022/06/19 05:16:08;;;;;;;4.80;3.70;;;;;;;24.53;47.98;95448.09;5002438;28;20029;-51
2022/06/19 05:18:34;;;;;;;5.30;3.60;;;;;;;24.56;47.65;95446.34;5002721;28;20030;-52
2022/06/19 05:21:01;;;;;;;4.72;3.80;;;;;;;24.57;48.07;95453.28;5012217;28;20018;-54
2022/06/19 05:23:28;;;;;;;8.73;4.25;;;;;;;24.56;48.05;95451.81;5003039;28;20022;-51
2022/06/19 05:26:01;;;;;;;5.20;4.00;;;;;;;24.55;48.08;95445.59;5002228;28;20021;-53
2022/06/19 05:28:26;;;;;;;4.22;3.80;;;;;;;24.58;48.10;95455.50;5009951;28;20505;-51
2022/06/19 05:30:52;;;;;;;4.78;3.72;;;;;;;24.55;48.26;95455.78;5005043;28;20030;-51
2022/06/19 05:33:17;;;;;;;5.20;3.90;;;;;;;24.54;48.12;95459.75;5003281;28;20026;-52
2022/06/19 05:35:43;;;;;;;4.68;4.03;;;;;;;24.57;48.42;95458.72;5000523;28;20068;-53
2022/06/19 05:38:12;;;;;;;5.43;4.32;;;;;;;24.60;48.00;95455.75;4999268;28;20030;-51
2022/06/19 05:40:38;;;;;;;4.82;3.88;;;;;;;24.59;48.31;95454.25;5005426;28;20076;-51
2022/06/19 05:43:03;;;;;;;6.45;4.03;;;;;;;24.61;48.36;95448.28;5001647;28;20425;-51
2022/06/19 05:45:29;;;;;;;4.70;3.95;;;;;;;24.63;48.15;95445.78;5001075;28;20105;-52
2022/06/19 05:47:54;;;;;;;5.38;3.90;;;;;;;24.62;47.96;95445.06;5000915;28;20029;-52
2022/06/19 05:50:20;;;;;;;5.03;4.10;;;;;;;24.66;48.05;95450.97;5002497;28;20026;-52
2022/06/19 05:52:45;;;;;;;4.57;3.75;;;;;;;24.71;47.83;95454.91;5001231;28;20702;-52
2022/06/19 05:55:12;;;;;;;6.35;4.15;;;;;;;24.71;48.07;95446.72;5003388;28;20028;-52
2022/06/19 05:57:37;;;;;;;6.10;4.43;;;;;;;24.74;48.17;95456.63;5002330;28;20125;-51
2022/06/19 06:00:03;;;;;;;5.70;3.97;;;;;;;24.72;47.99;95453.66;5003005;28;20104;-50
2022/06/19 06:02:29;;;;;;;5.03;4.10;;;;;;;24.72;48.11;95448.94;5000953;28;20069;-50
2022/06/19 06:04:55;;;;;;;4.85;4.00;;;;;;;24.78;48.23;95451.66;5002414;28;20052;-52
2022/06/19 06:07:21;;;;;;;4.38;3.80;;;;;;;24.74;48.16;95456.63;4985939;28;20028;-52
2022/06/19 06:09:46;;;;;;;7.00;4.43;;;;;;;24.76;48.16;95448.69;5002196;28;20084;-51
2022/06/19 06:12:12;;;;;;;6.45;4.30;;;;;;;24.78;48.52;95448.91;5001003;28;20028;-51
2022/06/19 06:14:37;;;;;;;6.10;4.05;;;;;;;24.78;48.25;95441.44;5001317;28;20766;-52
2022/06/19 06:17:03;;;;;;;4.53;3.83;;;;;;;24.79;48.40;95447.66;5002393;28;20026;-52
2022/06/19 06:19:28;;;;;;;4.35;3.85;;;;;;;24.79;48.89;95447.66;5001815;28;20072;-52
2022/06/19 06:21:54;;;;;;;5.85;3.92;;;;;;;24.81;48.17;95445.16;5003160;28;20485;-52
2022/06/19 06:24:19;;;;;;;5.32;4.18;;;;;;;24.84;48.29;95451.09;5003279;28;20175;-52
2022/06/19 06:26:45;;;;;;;5.90;4.22;;;;;;;24.86;48.50;95448.59;5012309;28;20037;-52
2022/06/19 06:29:10;;;;;;;6.00;4.20;;;;;;;24.86;48.66;95451.31;5000919;28;20037;-51
2022/06/19 06:31:36;;;;;;;4.93;4.43;;;;;;;24.86;48.28;95448.59;5000888;28;20083;-52
2022/06/19 06:34:02;;;;;;;6.57;4.60;;;;;;;24.88;48.30;95457.03;5002187;28;20477;-52
2022/06/19 06:36:28;;;;;;;5.07;3.92;;;;;;;24.91;48.21;95450.53;5001767;28;20074;-52
2022/06/19 06:38:53;;;;;;;4.75;3.80;;;;;;;24.95;47.97;95444.81;5001441;28;20105;-52
2022/06/19 06:41:19;;;;;;;5.43;4.43;;;;;;;24.94;48.12;95449.53;4984588;28;20577;-51
2022/06/19 06:43:45;;;;;;;5.32;4.13;;;;;;;24.98;48.30;95432.88;4985412;28;20054;-52
2022/06/19 06:46:31;;;;;;;4.97;4.25;;;;;;;24.97;47.72;95443.03;5002320;28;20045;-53
2022/06/19 06:49:02;;;;;;;4.50;3.78;;;;;;;25.01;48.22;95435.34;4997352;28;20034;-50
2022/06/19 06:51:28;;;;;;;4.43;4.00;;;;;;;25.01;48.05;95437.34;5000902;28;20100;-51
2022/06/19 06:53:53;;;;;;;4.65;4.00;;;;;;;25.02;48.36;95439.56;5001745;28;20112;-51
2022/06/19 06:56:20;;;;;;;3.88;3.47;;;;;;;25.04;47.64;95430.84;5003043;28;20025;-52
2022/06/19 06:58:45;;;;;;;4.00;3.22;;;;;;;25.07;47.36;95427.84;4983331;28;20118;-51
2022/06/19 07:01:16;;;;;;;5.40;3.40;;;;;;;25.08;46.71;95432.06;5001174;28;20505;-52
2022/06/19 07:03:42;;;;;;;5.43;3.40;;;;;;;25.10;46.78;95424.09;4997821;28;20111;-53
2022/06/19 07:06:08;;;;;;;4.13;3.40;;;;;;;25.10;46.94;95424.09;5001663;28;20064;-53
2022/06/19 07:08:34;;;;;;;4.82;3.35;;;;;;;25.12;46.89;95427.03;5002552;28;20026;-51
2022/06/19 07:10:59;;;;;;;5.03;3.50;;;;;;;25.15;46.69;95426.03;5003660;28;20018;-53
2022/06/19 07:13:25;;;;;;;5.45;3.28;;;;;;;25.16;46.36;95419.31;5004941;28;20672;-54
2022/06/19 07:15:51;;;;;;;4.35;3.13;;;;;;;25.16;46.17;95416.56;4999010;28;20885;-53
2022/06/19 07:18:18;;;;;;;4.00;3.08;;;;;;;25.19;46.14;95415.56;5002536;28;20048;-52
2022/06/19 07:20:43;;;;;;;4.22;3.40;;;;;;;25.21;46.65;95413.03;4979921;28;20026;-51
2022/06/19 07:23:09;;;;;;;4.22;2.97;;;;;;;25.25;45.98;95412.78;5002583;28;20036;-52
2022/06/19 07:25:34;;;;;;;4.57;3.00;;;;;;;25.26;45.31;95408.78;5000381;28;20025;-52
2022/06/19 07:28:00;;;;;;;4.15;3.00;;;;;;;25.28;45.45;95407.00;4999961;28;20038;-52
2022/06/19 07:30:26;;;;;;;4.40;3.20;;;;;;;25.28;45.17;95407.00;4996985;28;20410;-51
2022/06/19 07:32:52;;;;;;;4.00;3.00;;;;;;;25.30;44.86;95395.56;5000888;28;20093;-52
2022/06/19 07:35:18;;;;;;;3.65;3.03;;;;;;;25.32;45.22;95402.03;4999825;28;20022;-52
2022/06/19 07:37:43;;;;;;;4.40;2.70;;;;;;;25.37;44.37;95398.47;5002285;28;20077;-53
2022/06/19 07:40:11;;;;;;;4.82;2.88;;;;;;;25.37;44.54;95395.75;5005892;28;20017;-52
2022/06/19 07:42:36;;;;;;;3.72;2.28;;;;;;;25.38;44.06;95399.94;4983807;28;20202;-52
2022/06/19 07:45:02;;;;;;;2.85;2.50;;;;;;;25.40;44.33;95408.38;5002915;28;20468;-52
2022/06/19 07:50:16;;;;;;;2.90;2.30;;;;;;;25.42;43.89;95400.41;5001373;28;20056;-51
2022/06/19 07:52:47;;;;;;;4.15;2.85;;;;;;;25.43;43.31;95402.63;4999530;28;20033;-51
2022/06/19 07:55:17;;;;;;;3.70;2.72;;;;;;;25.46;43.18;95406.34;5001730;28;20057;-50
2022/06/19 07:57:43;;;;;;;4.72;2.90;;;;;;;25.46;43.23;95406.34;5001701;28;20026;-52
2022/06/19 08:00:11;;;;;;;2.70;2.33;;;;;;;25.50;43.33;95406.78;5001976;28;20028;-51
2022/06/19 08:02:36;;;;;;;2.97;2.42;;;;;;;25.52;43.23;95410.47;4982236;28;20037;-51
2022/06/19 08:05:03;;;;;;;3.58;2.55;;;;;;;25.55;43.36;95408.72;4999658;28;20022;-51
2022/06/19 08:07:29;;;;;;;3.42;2.30;;;;;;;25.56;43.10;95404.72;4999117;28;20069;-51
2022/06/19 08:09:54;;;;;;;3.65;2.20;;;;;;;25.58;42.95;95394.03;4997039;28;20026;-52
2022/06/19 08:12:20;;;;;;;3.58;2.33;;;;;;;25.60;43.06;95396.97;5000092;28;20432;-52
2022/06/19 08:14:46;;;;;;;4.20;2.38;;;;;;;25.62;42.99;95413.59;5002079;28;20038;-52
2022/06/19 08:17:12;;;;;;;3.60;2.30;;;;;;;25.63;42.88;95399.41;4998434;28;20025;-51
2022/06/19 08:19:37;;;;;;;3.10;2.00;;;;;;;25.67;42.42;95393.69;5002884;28;20056;-53
2022/06/19 08:22:03;;;;;;;2.70;2.28;;;;;;;25.69;42.74;95396.66;5001835;28;20025;-51
2022/06/19 08:24:28;;;;;;;2.78;1.88;;;;;;;25.71;42.38;95394.13;5002053;28;20050;-51
2022/06/19 08:27:06;;;;;;;2.60;1.90;;;;;;;25.73;42.44;95402.59;5001174;28;20084;-54
2022/06/19 08:29:32;;;;;;;3.50;1.90;;;;;;;25.75;42.03;95397.31;5001215;28;20392;-51
2022/06/19 08:31:58;;;;;;;2.35;1.90;;;;;;;25.78;41.74;95393.56;4999783;28;20484;-53
2022/06/19 08:34:24;;;;;;;2.40;1.88;;;;;;;25.78;41.58;95388.09;4983198;28;20030;-52
2022/06/19 08:36:49;;;;;;;2.70;1.80;;;;;;;25.79;41.78;95391.03;4996670;28;20137;-51
2022/06/19 08:39:16;;;;;;;2.83;2.15;;;;;;;25.82;41.65;95392.75;4983813;28;20511;-53
2022/06/19 08:42:00;;;;;;;2.83;2.10;;;;;;;25.84;41.13;95394.97;5016143;28;20493;-51
2022/06/19 08:44:26;;;;;;;3.03;2.03;;;;;;;25.82;41.30;95395.47;4982726;28;20413;-51
2022/06/19 08:47:09;;;;;;;3.08;2.05;;;;;;;25.87;41.65;95391.19;5000368;28;20026;-54
2022/06/19 08:50:00;;;;;;;3.65;1.98;;;;;;;25.87;40.92;95386.47;5000556;28;20041;-52
2022/06/19 08:53:03;;;;;;;3.00;2.20;;;;;;;25.89;40.92;95383.97;4986755;28;20823;-52
2022/06/19 08:55:41;;;;;;;2.20;1.80;;;;;;;25.92;41.14;95385.66;4999473;28;20038;-51
2022/06/19 08:58:39;;;;;;;2.88;2.20;;;;;;;25.94;41.07;95372.19;4982959;28;20519;-52
2022/06/19 09:01:09;;;;;;;2.78;1.90;;;;;;;25.97;41.06;95373.16;4999953;28;20078;-51
2022/06/19 09:06:37;;;;;;;2.13;1.75;;;;;;;26.02;40.70;95375.84;5002376;28;19932;-51
2022/06/19 09:09:21;;;;;;;3.40;1.90;;;;;;;26.06;41.11;95370.78;4986966;28;20172;-51
2022/06/19 09:11:51;;;;;;;4.28;2.28;;;;;;;26.08;40.57;95373.75;5005207;28;20033;-51
2022/06/19 09:14:37;;;;;;;2.20;1.60;;;;;;;26.12;40.45;95376.94;5001677;28;20054;-54
2022/06/19 09:17:19;;;;;;;2.85;1.98;;;;;;;26.12;39.94;95368.72;5000958;28;20667;-51
2022/06/19 09:19:57;;;;;;;3.95;1.90;;;;;;;26.15;39.75;95373.16;5006665;28;20503;-51
2022/06/19 09:23:09;;;;;;;2.10;1.60;;;;;;;26.19;39.89;95362.66;4984061;28;20017;-53
2022/06/19 09:26:00;;;;;;;7.50;1.60;;;;;;;26.16;38.38;95363.69;4904084;29;20036;-53
2022/06/19 09:28:33;;;;;;;3.35;1.02;;;;;;;26.14;35.31;95360.72;4995919;28;20053;-51
2022/06/19 09:31:14;;;;;;;1.70;0.90;;;;;;;26.12;33.30;95362.50;4998665;28;20059;-51
2022/06/19 09:34:06;;;;;;;1.48;0.98;;;;;;;26.08;33.82;95357.31;5004521;28;20030;-52
2022/06/19 09:36:44;;;;;;;2.03;1.00;;;;;;;26.11;33.51;95356.28;4965337;28;20056;-51
2022/06/19 09:39:28;;;;;;;1.77;0.90;;;;;;;26.09;33.08;95358.81;4985228;28;20084;-50
2022/06/19 09:41:54;;;;;;;2.45;1.00;;;;;;;26.08;32.17;95346.38;5010021;28;20041;-52
2022/06/19 09:44:22;;;;;;;1.85;0.80;;;;;;;26.05;32.57;95347.44;5005910;28;20041;-52
2022/06/19 09:47:01;;;;;;;2.25;1.00;;;;;;;26.07;32.47;95344.91;5001163;28;20036;-51
2022/06/19 09:49:46;;;;;;;1.70;0.80;;;;;;;25.98;32.49;95350.03;4962984;28;20030;-51
2022/06/19 09:52:15;;;;;;;2.75;0.90;;;;;;;26.00;32.24;95350.25;4982207;28;20033;-51
2022/06/19 09:55:02;;;;;;;1.10;0.80;;;;;;;25.97;32.46;95340.31;4967926;28;20045;-50
2022/06/19 09:57:51;;;;;;;2.58;1.30;;;;;;;25.93;32.62;95340.63;4996647;28;20042;-51
2022/06/19 10:00:21;;;;;;;2.92;1.40;;;;;;;25.97;33.20;95338.31;4990404;28;20029;-51
2022/06/19 10:03:14;;;;;;;1.83;1.23;;;;;;;25.96;32.77;95341.56;4983228;28;20551;-52
2022/06/19 10:05:45;;;;;;;1.50;1.00;;;;;;;25.97;32.39;95340.31;4947725;28;20042;-51
2022/06/19 10:08:29;;;;;;;2.55;1.00;;;;;;;25.93;32.11;95331.66;5003714;28;20053;-51
2022/06/19 10:11:08;;;;;;;2.75;0.82;;;;;;;25.97;31.60;95330.09;4989140;28;20026;-51
2022/06/19 10:13:39;;;;;;;3.45;0.80;;;;;;;25.99;32.22;95327.63;4966960;28;20107;-51
2022/06/19 10:16:16;;;;;;;1.95;0.90;;;;;;;26.02;33.39;95326.56;5002201;28;20076;-51
2022/06/19 10:18:43;;;;;;;1.85;1.10;;;;;;;26.05;32.91;95320.06;4967424;28;20030;-51
2022/06/19 10:22:13;;;;;;;2.53;0.80;;;;;;;26.06;33.37;95316.03;5005818;28;20071;-51
2022/06/19 10:24:14;;;;;;;2.00;1.30;;;;;;;26.06;34.00;95324.25;5001100;28;20533;-50
2022/06/19 10:26:51;;;;;;;1.40;0.95;;;;;;;26.11;32.12;95323.44;4997418;28;20508;-52
2022/06/19 10:29:32;;;;;;;7.53;1.00;;;;;;;26.12;32.31;95319.44;5000529;28;20034;-52
2022/06/19 10:32:27;;;;;;;1.75;0.93;;;;;;;26.12;31.59;95305.03;4995443;28;20018;-52
2022/06/19 10:34:58;;;;;;;1.48;0.93;;;;;;;26.09;32.38;95315.00;5002890;28;20041;-52
2022/06/19 10:37:52;;;;;;;1.80;0.90;;;;;;;26.11;32.35;95312.47;4999931;28;20173;-51
2022/06/19 10:40:25;;;;;;;2.53;0.80;;;;;;;26.18;32.48;95317.38;4978825;28;20025;-51
2022/06/19 10:43:03;;;;;;;1.50;0.90;;;;;;;26.22;33.67;95312.34;4982095;28;20034;-52
2022/06/19 10:45:41;;;;;;;1.13;0.80;;;;;;;26.28;32.25;95315.75;4984979;28;20037;-51
2022/06/19 10:48:19;;;;;;;1.17;0.65;;;;;;;26.27;33.38;95316.25;4969328;28;20044;-51
2022/06/19 10:50:51;;;;;;;1.55;0.75;;;;;;;26.33;33.97;95307.44;4982155;28;20022;-51
2022/06/19 10:53:24;;;;;;;2.03;0.82;;;;;;;26.38;33.34;95314.09;4983007;28;20026;-52
2022/06/19 10:55:56;;;;;;;2.30;0.95;;;;;;;26.46;33.36;95304.75;4999327;28;20100;-51
2022/06/19 10:58:23;;;;;;;2.80;0.90;;;;;;;26.57;34.44;95292.88;4983244;28;21043;-51
2022/06/19 11:01:03;;;;;;;2.25;0.90;;;;;;;26.69;34.25;95294.16;4966056;28;20041;-52
2022/06/19 11:06:35;;;;;;;1.65;1.00;;;;;;;26.90;33.04;95299.28;5000629;28;20053;-53
2022/06/19 11:09:03;;;;;;;2.13;1.20;;;;;;;27.01;33.25;95304.56;4983106;28;20030;-51
2022/06/19 11:11:29;;;;;;;1.48;1.08;;;;;;;27.10;33.64;95284.97;4999754;28;20034;-52
2022/06/19 11:14:09;;;;;;;1.45;1.00;;;;;;;27.29;33.85;95282.84;4983815;28;20103;-52
2022/06/19 11:16:50;;;;;;;;;;;;;;;27.43;33.89;95278.84;5001578;28;20348;-51
2022/06/19 11:19:30;;;;;;;1.73;0.95;;;;;;;27.51;33.60;95280.41;5000886;28;20380;-52
2022/06/19 11:21:56;;;;;;;2.15;1.00;;;;;;;27.66;33.17;95279.88;4982466;28;20493;-52
2022/06/19 11:24:29;;;;;;;1.60;1.00;;;;;;;27.77;32.83;95281.13;4981055;28;20029;-51
2022/06/19 11:26:54;;;;;;;2.10;1.10;;;;;;;27.89;31.79;95271.38;4998912;28;20030;-52
2022/06/19 11:29:20;;;;;;;3.25;0.98;;;;;;;27.98;32.04;95272.91;5015771;28;20610;-52
2022/06/19 11:32:08;;;;;;;3.00;1.42;;;;;;;28.08;31.64;95277.41;4998875;28;20117;-50
2022/06/19 11:34:51;;;;;;;2.45;1.02;;;;;;;28.19;31.74;95260.72;4996167;28;20167;-51
2022/06/19 11:37:28;;;;;;;2.13;0.90;;;;;;;28.29;32.16;95258.97;4984296;28;20060;-51
2022/06/19 11:39:59;;;;;;;1.50;0.98;;;;;;;28.36;30.42;95258.31;4982108;28;20057;-52
2022/06/19 11:42:51;;;;;;;1.65;0.90;;;;;;;28.41;30.35;95260.19;5003111;28;20531;-51
2022/06/19 11:45:16;;;;;;;1.23;0.85;;;;;;;28.46;30.81;95257.31;5000513;28;20029;-51
2022/06/19 11:47:43;;;;;;;1.60;0.85;;;;;;;28.54;31.38;95262.84;4978982;28;20088;-51
2022/06/19 11:50:14;;;;;;;1.30;0.80;;;;;;;28.63;30.45;95243.16;5002067;28;20493;-51
2022/06/19 11:52:40;;;;;;;1.75;0.95;;;;;;;28.63;30.84;95251.38;4999647;28;20412;-52
2022/06/19 11:55:31;;;;;;;2.33;1.10;;;;;;;28.68;31.15;95245.03;4973950;28;20029;-51
2022/06/19 11:58:02;;;;;;;2.15;1.20;;;;;;;28.78;30.43;95238.50;4995538;28;20037;-52